Time;durP1;ratioP1;P1;durP2;ratioP2;P2;SDS_P1;SDS_P2;PMS_P1;PMS_P2;Temp;Humidity;BMP_temperature;BMP_pressure;BME280_temperature;BME280_humidity;BME280_pressure;Samples;Min_cycle;Max_cycle;Signal;HPM_P1;HPM_P2
2023/05/26 00:02:25;;;;;;;5.25;4.72;;;;;;;23.86;59.73;101381.47;5076087;28;20412;-50
2023/05/26 00:04:58;;;;;;;5.22;4.65;;;;;;;23.86;59.97;101385.06;5077140;28;20048;-50
2023/05/26 00:07:25;;;;;;;5.40;4.20;;;;;;;23.85;59.71;101377.94;5077250;28;20404;-48
2023/05/26 00:09:54;;;;;;;6.22;4.90;;;;;;;23.85;60.15;101379.78;5077169;28;20045;-49
2023/05/26 00:12:23;;;;;;;6.65;4.13;;;;;;;23.85;59.99;101382.47;5076878;28;20052;-49
2023/05/26 00:14:50;;;;;;;6.72;4.50;;;;;;;23.84;59.96;101381.63;5076820;28;20464;-49
2023/05/26 00:17:17;;;;;;;5.03;4.53;;;;;;;23.85;59.93;101379.78;5077002;28;20392;-48
2023/05/26 00:19:45;;;;;;;6.30;4.95;;;;;;;23.84;60.03;101380.78;5076625;28;20397;-51
2023/05/26 00:22:15;;;;;;;6.40;4.95;;;;;;;23.84;59.88;101378.94;5077125;28;20059;-47
2023/05/26 00:24:43;;;;;;;6.85;5.20;;;;;;;23.84;59.93;101383.50;5076948;28;20044;-49
2023/05/26 00:27:11;;;;;;;5.15;4.50;;;;;;;23.83;59.67;101381.78;5076698;28;20044;-49
2023/05/26 00:29:38;;;;;;;5.88;4.85;;;;;;;23.84;60.08;101378.09;5076576;28;20044;-49
2023/05/26 00:32:06;;;;;;;5.25;4.35;;;;;;;23.83;60.12;101370.97;5076542;28;20051;-49
2023/05/26 00:34:36;;;;;;;5.32;4.80;;;;;;;23.82;60.02;101375.53;5076470;28;20048;-49
2023/05/26 00:37:04;;;;;;;7.38;5.00;;;;;;;23.82;59.78;101363.84;5074929;28;20052;-49
2023/05/26 00:39:31;;;;;;;5.43;4.72;;;;;;;23.82;59.79;101374.66;5075100;28;20056;-51
2023/05/26 00:42:01;;;;;;;6.70;4.50;;;;;;;23.81;59.79;101368.41;5075210;28;20052;-50
2023/05/26 00:44:28;;;;;;;5.00;4.50;;;;;;;23.81;59.75;101376.50;5074900;28;20048;-48
2023/05/26 00:46:56;;;;;;;4.78;4.28;;;;;;;23.81;60.09;101379.22;5075567;28;20071;-50
2023/05/26 00:49:24;;;;;;;5.00;4.15;;;;;;;23.81;60.09;101378.38;5076288;28;20472;-48
2023/05/26 00:51:52;;;;;;;5.78;4.75;;;;;;;23.80;60.09;101379.38;5076440;28;20392;-49
2023/05/26 00:54:21;;;;;;;5.57;4.68;;;;;;;23.80;60.09;101382.94;5076158;28;20384;-48
2023/05/26 00:56:51;;;;;;;6.05;5.13;;;;;;;23.80;59.86;101382.09;5076129;28;20045;-52
2023/05/26 00:59:19;;;;;;;5.35;4.63;;;;;;;23.80;59.99;101380.22;5075958;28;20040;-49
2023/05/26 01:01:49;;;;;;;5.70;4.90;;;;;;;23.81;60.04;101372.97;5075937;28;20374;-48
2023/05/26 01:04:17;;;;;;;6.25;4.95;;;;;;;23.80;59.90;101376.69;5075935;28;20389;-49
2023/05/26 01:06:45;;;;;;;5.53;4.65;;;;;;;23.79;59.75;101375.81;5073166;28;20056;-48
2023/05/26 01:09:15;;;;;;;6.40;4.90;;;;;;;23.80;59.78;101382.94;5075459;28;20045;-49
2023/05/26 01:11:50;;;;;;;5.20;4.70;;;;;;;23.80;60.08;101382.09;5076069;28;20049;-50
2023/05/26 01:14:36;;;;;;;7.40;4.90;;;;;;;23.79;60.09;101383.94;5074686;28;20052;-48
2023/05/26 01:17:11;;;;;;;7.13;4.72;;;;;;;23.78;59.89;101378.66;5075698;28;20044;-48
2023/05/26 01:20:07;;;;;;;5.88;5.00;;;;;;;23.80;60.09;101384.78;5074647;28;20071;-48
2023/05/26 01:22:43;;;;;;;6.38;4.75;;;;;;;23.78;60.09;101384.06;5075606;28;20040;-48
2023/05/26 01:25:29;;;;;;;5.38;4.88;;;;;;;23.78;59.76;101373.25;5075536;28;20048;-47
2023/05/26 01:28:14;;;;;;;5.75;5.15;;;;;;;23.77;59.88;101376.97;5075361;28;20044;-48
2023/05/26 01:30:43;;;;;;;6.13;5.25;;;;;;;23.77;59.91;101374.25;5075688;28;20480;-49
2023/05/26 01:33:11;;;;;;;7.00;4.70;;;;;;;23.76;59.85;101378.81;5074000;28;20063;-48
2023/05/26 01:35:40;;;;;;;5.32;4.82;;;;;;;23.77;59.72;101380.50;5074391;28;20500;-48
2023/05/26 01:38:08;;;;;;;6.65;5.50;;;;;;;23.76;60.12;101381.53;5074007;28;20053;-48
2023/05/26 01:40:38;;;;;;;5.97;4.97;;;;;;;23.77;59.84;101376.97;5075567;28;20044;-49
2023/05/26 01:43:23;;;;;;;5.13;4.70;;;;;;;23.76;59.91;101381.53;5075053;28;20044;-50
2023/05/26 01:46:05;;;;;;;7.45;4.90;;;;;;;23.77;59.69;101371.56;5075654;28;20376;-47
2023/05/26 01:48:36;;;;;;;5.18;4.55;;;;;;;23.76;59.86;101375.28;5073965;28;20507;-48
2023/05/26 01:51:06;;;;;;;6.40;5.15;;;;;;;23.76;59.79;101373.41;5074182;28;20059;-48
2023/05/26 01:53:37;;;;;;;5.60;4.70;;;;;;;23.76;59.93;101380.69;5075034;28;20491;-49
2023/05/26 01:56:06;;;;;;;7.70;5.35;;;;;;;23.76;59.68;101372.56;5074981;28;20051;-47
2023/05/26 01:58:36;;;;;;;5.50;4.90;;;;;;;23.75;59.51;101374.41;5073923;28;20055;-47
2023/05/26 02:01:04;;;;;;;5.60;5.00;;;;;;;23.75;59.77;101377.13;5073509;28;20060;-49
2023/05/26 02:03:33;;;;;;;5.15;4.65;;;;;;;23.75;59.68;101378.97;5073523;28;20495;-48
2023/05/26 02:06:03;;;;;;;5.90;5.20;;;;;;;23.75;59.74;101379.81;5073230;28;20057;-48
2023/05/26 02:08:31;;;;;;;6.78;5.03;;;;;;;23.75;59.65;101377.13;5073636;28;20045;-49
2023/05/26 02:10:58;;;;;;;4.88;4.35;;;;;;;23.74;59.78;101378.13;5074157;28;20381;-48
2023/05/26 02:13:26;;;;;;;5.35;4.30;;;;;;;23.76;59.71;101380.69;5073972;28;20041;-50
2023/05/26 02:15:53;;;;;;;6.47;4.80;;;;;;;23.75;59.55;101373.56;5073257;28;20052;-48
2023/05/26 02:18:21;;;;;;;5.78;4.93;;;;;;;23.75;59.50;101373.56;5073982;28;20055;-48
2023/05/26 02:20:48;;;;;;;5.60;4.68;;;;;;;23.75;59.44;101370.88;5073029;28;20419;-49
2023/05/26 02:23:16;;;;;;;7.13;4.63;;;;;;;23.75;59.53;101378.97;5073404;28;20049;-48
2023/05/26 02:25:44;;;;;;;5.78;4.78;;;;;;;23.75;59.51;101374.41;5072743;28;20052;-49
2023/05/26 02:28:12;;;;;;;5.15;4.65;;;;;;;23.75;59.47;101370.88;5074286;28;20053;-48
2023/05/26 02:30:39;;;;;;;5.28;4.78;;;;;;;23.75;59.52;101373.56;5074158;28;20081;-49
2023/05/26 02:33:09;;;;;;;5.07;4.57;;;;;;;23.75;59.70;101373.56;5074123;28;20040;-48
2023/05/26 02:35:37;;;;;;;5.18;4.40;;;;;;;23.75;59.57;101376.28;5073823;28;20056;-48
2023/05/26 02:38:05;;;;;;;5.85;4.85;;;;;;;23.75;59.86;101370.88;5074280;28;20385;-48
2023/05/26 02:40:32;;;;;;;4.63;4.22;;;;;;;23.75;59.93;101373.56;5074077;28;20052;-49
2023/05/26 02:43:00;;;;;;;5.35;4.70;;;;;;;23.75;59.87;101363.59;5074021;28;20049;-49
2023/05/26 02:45:27;;;;;;;5.18;4.55;;;;;;;23.76;59.56;101375.28;5072650;28;20053;-49
2023/05/26 02:47:54;;;;;;;6.57;4.60;;;;;;;23.75;59.72;101366.31;5072554;28;20052;-50
2023/05/26 02:50:22;;;;;;;5.47;4.97;;;;;;;23.75;59.55;101366.31;5073929;28;20484;-49
2023/05/26 02:52:49;;;;;;;5.85;4.85;;;;;;;23.75;59.76;101374.41;5072933;28;20380;-49
2023/05/26 02:55:17;;;;;;;5.28;4.50;;;;;;;23.74;59.70;101370.03;5073938;28;20051;-49
2023/05/26 02:57:45;;;;;;;5.40;4.70;;;;;;;23.75;59.56;101373.56;5074117;28;20053;-48
2023/05/26 03:00:13;;;;;;;4.55;4.07;;;;;;;23.75;59.31;101376.28;5073872;28;20052;-48
2023/05/26 03:02:41;;;;;;;5.63;4.22;;;;;;;23.74;59.63;101366.44;5073729;28;20389;-49
2023/05/26 03:05:08;;;;;;;6.63;4.32;;;;;;;23.74;59.51;101369.13;5072251;28;20056;-49
2023/05/26 03:07:36;;;;;;;5.03;4.18;;;;;;;23.73;59.68;101373.69;5072706;28;20063;-49
2023/05/26 03:10:04;;;;;;;6.95;4.65;;;;;;;23.71;59.41;101362.19;5072810;28;20044;-48
2023/05/26 03:12:32;;;;;;;4.88;4.38;;;;;;;23.72;59.23;101371.16;5072209;28;20048;-49
2023/05/26 03:14:59;;;;;;;5.47;4.47;;;;;;;23.72;59.42;101366.59;5071826;28;20055;-49
2023/05/26 03:17:29;;;;;;;4.78;4.28;;;;;;;23.72;59.68;101365.75;5073463;28;20044;-50
2023/05/26 03:19:57;;;;;;;4.70;4.00;;;;;;;23.71;59.36;101370.31;5072051;28;20393;-51
2023/05/26 03:22:25;;;;;;;6.10;4.15;;;;;;;23.72;59.17;101368.44;5072462;28;20044;-53
2023/05/26 03:25:11;;;;;;;5.03;4.45;;;;;;;23.72;59.30;101373.84;5072115;28;20045;-49
2023/05/26 03:27:46;;;;;;;4.00;3.60;;;;;;;23.70;59.32;101371.31;5072392;28;20052;-49
2023/05/26 03:30:13;;;;;;;4.90;4.18;;;;;;;23.72;59.08;101379.25;5071853;28;20056;-49
2023/05/26 03:32:42;;;;;;;6.07;4.45;;;;;;;23.73;59.32;101378.25;5073204;28;20060;-49
2023/05/26 03:35:10;;;;;;;5.25;4.32;;;;;;;23.73;59.18;101383.66;5072132;28;20052;-52
2023/05/26 03:37:38;;;;;;;5.07;4.57;;;;;;;23.72;59.25;101379.25;5071703;28;20064;-49
2023/05/26 03:40:08;;;;;;;6.13;4.55;;;;;;;23.71;59.32;101377.56;5073000;28;20048;-49
2023/05/26 03:42:36;;;;;;;5.40;4.40;;;;;;;23.70;59.20;101374.03;5072113;28;20076;-48
2023/05/26 03:45:04;;;;;;;5.25;4.20;;;;;;;23.71;59.33;101378.41;5071605;28;20057;-49
2023/05/26 03:47:32;;;;;;;5.60;4.40;;;;;;;23.70;59.33;101379.44;5072173;28;20052;-48
2023/05/26 03:50:01;;;;;;;6.18;4.70;;;;;;;23.71;59.35;101367.59;5072093;28;20056;-48
2023/05/26 03:52:35;;;;;;;5.35;4.32;;;;;;;23.69;59.25;101370.44;5072257;28;20420;-48
2023/05/26 03:55:03;;;;;;;5.15;4.60;;;;;;;23.71;58.95;101382.97;5071882;28;20056;-48
2023/05/26 03:57:31;;;;;;;4.97;4.32;;;;;;;23.71;59.25;101382.97;5071545;28;20053;-50
2023/05/26 03:59:58;;;;;;;4.82;4.18;;;;;;;23.69;59.13;101381.25;5072354;28;20388;-49
2023/05/26 04:02:25;;;;;;;4.53;4.07;;;;;;;23.68;59.24;101382.25;5073276;28;20048;-49
2023/05/26 04:04:53;;;;;;;4.90;4.05;;;;;;;23.69;58.69;101393.91;5073092;28;20376;-49
2023/05/26 04:07:21;;;;;;;4.88;4.38;;;;;;;23.69;58.75;101393.91;5071475;28;20052;-48
2023/05/26 04:09:49;;;;;;;5.88;4.68;;;;;;;23.68;59.09;101389.53;5071801;28;20056;-48
2023/05/26 04:12:17;;;;;;;4.50;3.70;;;;;;;23.68;58.74;101392.22;5073118;28;20053;-49
2023/05/26 04:14:45;;;;;;;5.45;4.30;;;;;;;23.67;58.71;101393.22;5072927;28;20048;-48
2023/05/26 04:17:12;;;;;;;7.53;4.13;;;;;;;23.67;58.67;101396.78;5072943;28;20056;-49
2023/05/26 04:19:40;;;;;;;5.20;4.03;;;;;;;23.67;58.80;101391.38;5071519;28;20512;-49
2023/05/26 04:22:07;;;;;;;5.68;4.68;;;;;;;23.67;58.64;101393.22;5071818;28;20056;-48
2023/05/26 04:24:34;;;;;;;5.50;3.70;;;;;;;23.67;59.03;101388.66;5072705;28;20040;-48
2023/05/26 04:27:02;;;;;;;4.45;3.92;;;;;;;23.66;58.65;101391.53;5071722;28;20052;-49
2023/05/26 04:29:36;;;;;;;5.90;4.15;;;;;;;23.67;58.75;101393.22;5071764;28;20500;-48
2023/05/26 04:32:21;;;;;;;4.18;3.63;;;;;;;23.66;58.99;101392.38;5071279;28;20423;-48
2023/05/26 04:35:20;;;;;;;5.40;4.25;;;;;;;23.66;58.91;101388.81;5071074;28;20067;-48
2023/05/26 04:37:50;;;;;;;4.40;3.63;;;;;;;23.66;58.84;101380.72;5072422;28;20061;-49
2023/05/26 04:40:18;;;;;;;5.53;3.97;;;;;;;23.66;58.76;101384.28;5073102;28;20052;-49
2023/05/26 04:42:48;;;;;;;6.40;3.88;;;;;;;23.66;58.51;101388.81;5076220;28;20059;-48
2023/05/26 04:45:16;;;;;;;6.30;4.60;;;;;;;23.66;58.80;101394.22;5075338;28;20488;-49
2023/05/26 04:47:49;;;;;;;;;;;;;;;23.63;58.75;101394.50;5075543;28;20056;-49
2023/05/26 04:50:17;;;;;;;5.15;4.65;;;;;;;23.64;58.54;101396.19;5074930;28;19921;-49
2023/05/26 04:52:44;;;;;;;4.97;4.47;;;;;;;23.64;58.53;101399.72;5075120;28;20056;-49
2023/05/26 04:55:12;;;;;;;4.22;3.83;;;;;;;23.64;58.83;101405.13;5076653;28;20056;-49
2023/05/26 04:57:40;;;;;;;4.72;4.13;;;;;;;23.64;58.68;101405.13;5075102;28;20048;-49
2023/05/26 05:00:13;;;;;;;4.78;4.20;;;;;;;23.65;58.61;101406.00;5075123;28;20052;-49
2023/05/26 05:02:42;;;;;;;6.13;4.13;;;;;;;23.64;58.87;101410.53;5075047;28;20056;-48
2023/05/26 05:05:19;;;;;;;5.65;4.45;;;;;;;23.64;58.88;101407.84;5075016;28;20503;-48
2023/05/26 05:07:50;;;;;;;5.72;4.55;;;;;;;23.65;58.45;101412.28;5075161;28;20045;-48
2023/05/26 05:10:18;;;;;;;4.97;3.92;;;;;;;23.65;58.60;101411.41;5058291;28;20052;-49
2023/05/26 05:12:46;;;;;;;6.38;4.47;;;;;;;23.64;58.51;101415.94;5074711;28;20056;-48
2023/05/26 05:15:18;;;;;;;5.10;4.60;;;;;;;23.63;58.78;101413.41;5074611;28;20053;-49
2023/05/26 05:17:46;;;;;;;5.18;4.30;;;;;;;23.64;58.72;101415.09;5074802;28;20051;-48
2023/05/26 05:20:13;;;;;;;5.03;4.18;;;;;;;23.63;58.58;101414.25;5074626;28;20397;-49
2023/05/26 05:22:46;;;;;;;4.40;4.00;;;;;;;23.63;58.39;101408.00;5073851;28;20400;-52
2023/05/26 05:25:15;;;;;;;4.10;3.70;;;;;;;23.62;58.70;101412.56;5074565;28;20283;-53
2023/05/26 05:27:43;;;;;;;5.53;4.25;;;;;;;23.63;58.60;101413.41;5074454;28;20690;-49
2023/05/26 05:30:11;;;;;;;4.43;3.80;;;;;;;23.65;58.31;101414.09;5074582;28;20048;-49
2023/05/26 05:32:39;;;;;;;4.88;4.32;;;;;;;23.63;58.63;101413.41;5074106;28;20053;-49
2023/05/26 05:35:08;;;;;;;4.40;4.00;;;;;;;23.62;58.21;101412.56;5075024;28;20515;-49
2023/05/26 05:37:36;;;;;;;5.70;4.35;;;;;;;23.64;58.45;101409.69;5074320;28;20415;-48
2023/05/26 05:40:04;;;;;;;4.88;4.28;;;;;;;23.64;58.60;101417.81;5074277;28;20052;-49
2023/05/26 05:42:31;;;;;;;5.03;3.95;;;;;;;23.64;58.47;101412.41;5074039;28;20508;-49
2023/05/26 05:44:59;;;;;;;5.38;4.00;;;;;;;23.62;58.40;101409.84;5075351;28;20037;-49
2023/05/26 05:48:01;;;;;;;4.95;4.30;;;;;;;23.65;58.33;101414.09;5074531;28;20045;-49
2023/05/26 05:50:31;;;;;;;4.60;4.07;;;;;;;23.64;58.51;101413.25;5074132;28;20060;-50
2023/05/26 05:52:59;;;;;;;4.65;4.25;;;;;;;23.65;58.68;101411.41;5073350;28;20059;-49
2023/05/26 05:55:27;;;;;;;5.43;4.15;;;;;;;23.65;58.64;101411.41;5073782;28;20048;-48
2023/05/26 05:57:54;;;;;;;5.20;3.88;;;;;;;23.65;58.33;101408.69;5073664;28;20052;-48
2023/05/26 06:00:22;;;;;;;4.28;3.78;;;;;;;23.64;58.84;101412.41;5073714;28;20519;-49
2023/05/26 06:02:50;;;;;;;4.65;3.80;;;;;;;23.65;58.50;101414.97;5074435;28;20049;-50
2023/05/26 06:05:18;;;;;;;5.90;4.15;;;;;;;23.65;58.76;101423.09;5073235;28;20044;-51
2023/05/26 06:07:46;;;;;;;4.43;3.83;;;;;;;23.65;58.58;101420.38;5073227;28;20059;-48
2023/05/26 06:10:14;;;;;;;5.32;4.53;;;;;;;23.65;58.58;101420.38;5073324;28;20385;-50
2023/05/26 06:12:41;;;;;;;4.55;3.67;;;;;;;23.65;58.74;101423.09;5074287;28;20067;-49
2023/05/26 06:15:09;;;;;;;4.88;3.90;;;;;;;23.66;58.67;101429.38;5072649;28;20051;-51
2023/05/26 06:17:36;;;;;;;4.53;4.07;;;;;;;23.66;58.34;101423.97;5073227;28;20045;-49
2023/05/26 06:20:05;;;;;;;4.55;3.90;;;;;;;23.66;58.49;101430.22;5073445;28;20354;-50
2023/05/26 06:22:36;;;;;;;5.22;4.10;;;;;;;23.66;58.46;101424.81;5073404;28;20059;-52
2023/05/26 06:25:04;;;;;;;6.32;4.35;;;;;;;23.67;58.79;101422.97;5073013;28;20420;-50
2023/05/26 06:27:32;;;;;;;5.68;3.80;;;;;;;23.67;58.67;101423.81;5074369;28;20504;-49
2023/05/26 06:29:59;;;;;;;5.90;4.45;;;;;;;23.67;58.68;101423.81;5073050;28;20480;-50
2023/05/26 06:32:27;;;;;;;4.00;3.60;;;;;;;23.69;58.58;101423.66;5073026;28;20055;-51
2023/05/26 06:34:54;;;;;;;5.80;4.65;;;;;;;23.68;58.56;101430.06;5073048;28;20048;-50
2023/05/26 06:37:22;;;;;;;5.63;3.72;;;;;;;23.69;58.52;101429.06;5072876;28;20499;-53
2023/05/26 06:39:50;;;;;;;4.97;4.00;;;;;;;23.70;58.98;101430.78;5074095;28;20392;-51
2023/05/26 06:42:23;;;;;;;4.38;3.78;;;;;;;23.71;58.60;101439.75;5073126;28;20068;-49
2023/05/26 06:44:50;;;;;;;4.15;3.45;;;;;;;23.71;58.65;101437.03;5072697;28;20048;-52
2023/05/26 06:47:23;;;;;;;5.00;3.92;;;;;;;23.72;58.85;101441.44;5077779;28;20048;-54
2023/05/26 06:49:51;;;;;;;5.45;4.10;;;;;;;23.74;58.77;101443.00;5092063;28;20059;-57
2023/05/26 06:52:21;;;;;;;4.72;4.13;;;;;;;23.77;58.89;101441.84;5094401;28;20048;-54
2023/05/26 06:54:49;;;;;;;5.85;4.47;;;;;;;23.81;58.64;101444.09;5092683;28;20456;-58
2023/05/26 06:57:17;;;;;;;6.32;3.97;;;;;;;23.83;59.04;101441.28;5092551;28;20059;-58
2023/05/26 06:59:45;;;;;;;7.05;3.95;;;;;;;23.83;58.83;101446.69;5092571;28;20063;-55
2023/05/26 07:02:12;;;;;;;6.57;4.53;;;;;;;23.82;58.67;101444.97;5093744;28;20399;-57
2023/05/26 07:04:41;;;;;;;4.50;3.85;;;;;;;23.83;58.67;101449.38;5091929;28;20048;-58
2023/05/26 07:07:09;;;;;;;6.38;4.15;;;;;;;23.83;59.26;101443.97;5092003;28;20067;-55
2023/05/26 07:09:36;;;;;;;5.10;4.15;;;;;;;23.85;59.32;101445.53;5092176;28;20483;-56
2023/05/26 07:12:10;;;;;;;7.93;4.93;;;;;;;23.89;58.87;101444.22;5092666;28;20048;-55
2023/05/26 07:14:49;;;;;;;4.47;4.03;;;;;;;23.91;58.59;101442.25;5092090;28;20403;-50
2023/05/26 07:17:17;;;;;;;4.22;3.83;;;;;;;23.95;58.49;101441.97;5093453;28;20044;-52
2023/05/26 07:19:46;;;;;;;6.93;5.10;;;;;;;23.98;58.36;101438.94;5092576;28;20051;-55
2023/05/26 07:22:13;;;;;;;6.93;4.80;;;;;;;23.99;57.12;101440.66;5091878;28;20048;-55
2023/05/26 07:25:07;;;;;;;7.57;6.30;;;;;;;23.97;56.48;101429.13;5092538;28;20059;-54
2023/05/26 07:27:44;;;;;;;7.93;5.57;;;;;;;23.95;55.75;101420.31;5091216;28;20522;-58
2023/05/26 07:30:12;;;;;;;9.63;6.63;;;;;;;23.92;55.32;101426.88;5092048;28;20499;-56
2023/05/26 07:32:58;;;;;;;9.35;7.10;;;;;;;23.87;55.20;101429.16;5099835;28;20055;-56
2023/05/26 07:35:27;;;;;;;7.43;5.88;;;;;;;23.85;55.49;101433.84;5091565;28;20392;-57
2023/05/26 07:37:55;;;;;;;8.90;5.82;;;;;;;23.85;55.63;101434.72;5080559;28;20061;-56
2023/05/26 07:40:22;;;;;;;8.02;5.57;;;;;;;23.87;55.89;101429.16;5073154;28;20408;-57
2023/05/26 07:42:50;;;;;;;8.13;5.53;;;;;;;23.90;56.56;101427.03;5080614;28;20048;-54
2023/05/26 07:45:18;;;;;;;6.53;5.22;;;;;;;23.92;56.78;101422.31;5092866;28;20047;-56
2023/05/26 07:47:45;;;;;;;7.15;4.88;;;;;;;23.95;56.89;101423.88;5092752;28;20047;-57
2023/05/26 07:50:13;;;;;;;8.32;5.10;;;;;;;23.99;56.63;101425.28;5093119;28;20048;-58
2023/05/26 07:52:40;;;;;;;9.13;5.20;;;;;;;24.01;56.54;101423.25;5093058;28;20047;-58
2023/05/26 07:55:08;;;;;;;5.85;5.25;;;;;;;24.03;56.96;101426.69;5093075;28;20036;-58
2023/05/26 07:57:37;;;;;;;6.05;4.95;;;;;;;24.06;56.94;101426.38;5092430;28;20047;-57
2023/05/26 08:00:05;;;;;;;5.30;4.80;;;;;;;24.08;57.04;101423.53;5093043;28;20051;-53
2023/05/26 08:02:39;;;;;;;6.55;4.82;;;;;;;24.09;57.01;101423.38;5099529;28;20052;-55
2023/05/26 08:05:07;;;;;;;5.53;4.88;;;;;;;24.11;57.09;101420.53;5092876;28;20044;-57
2023/05/26 08:07:34;;;;;;;7.38;4.65;;;;;;;24.14;57.11;101422.94;5092912;28;20040;-56
2023/05/26 08:10:03;;;;;;;7.38;4.97;;;;;;;24.13;57.17;101422.06;5092331;28;20043;-58
2023/05/26 08:12:30;;;;;;;6.13;5.45;;;;;;;24.15;57.10;101425.50;5092854;28;20051;-57
2023/05/26 08:14:57;;;;;;;5.28;4.55;;;;;;;24.18;57.24;101425.22;5092327;28;20052;-60
2023/05/26 08:17:25;;;;;;;5.47;4.82;;;;;;;24.18;57.14;101419.81;5096773;28;20040;-58
2023/05/26 08:19:52;;;;;;;5.07;4.57;;;;;;;24.18;57.25;101425.22;5097119;28;20057;-58
2023/05/26 08:22:20;;;;;;;6.57;5.05;;;;;;;24.21;56.81;101417.78;5096609;28;20055;-57
2023/05/26 08:24:48;;;;;;;6.50;5.03;;;;;;;24.23;56.82;101423.91;5096558;28;20495;-56
2023/05/26 08:27:15;;;;;;;5.97;5.10;;;;;;;24.22;56.92;101408.66;5096355;28;20420;-57
2023/05/26 08:29:42;;;;;;;6.75;5.30;;;;;;;24.23;57.09;101413.09;5096483;28;20048;-56
2023/05/26 08:32:10;;;;;;;5.97;5.25;;;;;;;24.23;57.28;101410.38;5096741;28;20040;-58
2023/05/26 08:34:37;;;;;;;5.93;5.13;;;;;;;24.23;57.11;101411.22;5096586;28;20043;-56
2023/05/26 08:37:05;;;;;;;6.53;4.72;;;;;;;24.24;57.16;101412.06;5095151;28;20048;-57
2023/05/26 08:39:32;;;;;;;5.05;4.15;;;;;;;24.24;56.96;101406.66;5096281;28;20041;-57
2023/05/26 08:42:03;;;;;;;5.75;5.05;;;;;;;24.26;57.28;101410.06;5096600;28;20055;-56
2023/05/26 08:44:30;;;;;;;6.93;5.20;;;;;;;24.26;57.05;101410.91;5096276;28;20048;-57
2023/05/26 08:47:00;;;;;;;6.75;5.47;;;;;;;24.28;57.22;101406.22;5096377;28;20074;-56
2023/05/26 08:49:34;;;;;;;6.55;5.93;;;;;;;24.28;57.33;101406.22;5096062;28;20411;-57
2023/05/26 08:52:13;;;;;;;7.07;4.60;;;;;;;24.30;57.38;101411.47;5096215;28;20059;-56
2023/05/26 08:54:41;;;;;;;7.50;4.68;;;;;;;24.30;56.93;101411.47;5096117;28;20051;-58
2023/05/26 08:57:10;;;;;;;6.82;5.45;;;;;;;24.31;57.12;101407.78;5095972;28;20044;-58
2023/05/26 08:59:39;;;;;;;6.03;5.30;;;;;;;24.30;57.06;101412.31;5095956;28;20055;-60
2023/05/26 09:02:06;;;;;;;5.68;4.65;;;;;;;24.30;57.10;101409.59;5096211;28;20067;-58
2023/05/26 09:04:34;;;;;;;6.40;5.22;;;;;;;24.31;56.91;101415.91;5096239;28;20052;-56
2023/05/26 09:07:01;;;;;;;6.45;5.05;;;;;;;24.31;57.18;101414.03;5095964;28;20040;-58
2023/05/26 09:09:51;;;;;;;5.97;4.88;;;;;;;24.33;57.20;101411.16;5095680;28;20068;-57
2023/05/26 09:12:18;;;;;;;5.82;4.95;;;;;;;24.34;57.41;101415.56;5095836;28;20059;-57
2023/05/26 09:14:46;;;;;;;6.60;5.18;;;;;;;24.34;57.53;101415.56;5094963;28;20036;-56
2023/05/26 09:17:13;;;;;;;6.97;5.03;;;;;;;24.33;57.36;101422.00;5095575;28;20040;-57
2023/05/26 09:19:41;;;;;;;5.22;4.60;;;;;;;24.31;57.41;101414.03;5095374;28;20044;-58
2023/05/26 09:22:10;;;;;;;6.88;5.60;;;;;;;24.31;57.56;101418.59;5095607;28;20055;-55
2023/05/26 09:24:49;;;;;;;6.85;5.72;;;;;;;24.29;57.43;101418.72;5095462;28;20065;-55
2023/05/26 09:27:23;;;;;;;6.78;5.78;;;;;;;24.28;57.52;101414.31;5094587;28;20040;-55
2023/05/26 09:29:55;;;;;;;6.25;5.65;;;;;;;24.26;57.27;101415.47;5095413;28;20047;-56
2023/05/26 09:32:29;;;;;;;7.35;5.82;;;;;;;24.26;57.24;101413.59;5095670;28;20044;-55
2023/05/26 09:35:00;;;;;;;7.70;5.43;;;;;;;24.26;57.34;101413.59;5094967;28;20055;-55
2023/05/26 09:37:29;;;;;;;6.82;5.38;;;;;;;24.26;57.20;101410.06;5095143;28;20188;-55
2023/05/26 09:40:14;;;;;;;6.18;5.38;;;;;;;24.25;57.30;101409.22;5095223;28;20052;-57
2023/05/26 09:42:52;;;;;;;4.97;4.47;;;;;;;24.24;57.32;101404.81;5095211;28;20379;-57
2023/05/26 09:45:20;;;;;;;5.22;4.72;;;;;;;24.24;57.49;101401.25;5095123;28;20048;-58
2023/05/26 09:47:57;;;;;;;8.45;5.65;;;;;;;24.23;57.02;101402.25;5094945;28;20048;-56
2023/05/26 09:50:25;;;;;;;8.68;6.63;;;;;;;24.19;56.33;101407.13;5095195;28;20051;-55
2023/05/26 09:52:53;;;;;;;6.72;5.97;;;;;;;24.15;56.46;101397.59;5095107;28;20052;-55
2023/05/26 09:55:20;;;;;;;7.53;6.30;;;;;;;24.14;56.22;101399.44;5095004;28;20392;-54
2023/05/26 09:57:51;;;;;;;7.15;6.45;;;;;;;24.14;56.35;101396.72;5094790;28;20597;-54
2023/05/26 10:00:20;;;;;;;7.18;6.30;;;;;;;24.14;56.00;101390.47;5074771;28;20496;-52
2023/05/26 10:02:48;;;;;;;7.97;6.63;;;;;;;24.13;55.94;101386.06;5074629;28;20045;-55
2023/05/26 10:05:16;;;;;;;8.18;6.97;;;;;;;24.10;55.73;101389.91;5094576;28;20048;-54
2023/05/26 10:07:45;;;;;;;7.72;6.50;;;;;;;24.10;55.82;101389.91;5094035;28;20040;-54
2023/05/26 10:10:14;;;;;;;9.00;8.05;;;;;;;24.10;55.53;101389.91;5093297;28;20048;-54
2023/05/26 10:12:42;;;;;;;9.35;8.35;;;;;;;24.09;55.64;101382.81;5093839;28;20051;-54
2023/05/26 10:15:10;;;;;;;8.13;7.22;;;;;;;24.08;55.26;101385.66;5094505;28;20484;-55
2023/05/26 10:17:39;;;;;;;9.13;6.95;;;;;;;24.09;55.33;101388.22;5094870;28;20059;-55
2023/05/26 10:20:11;;;;;;;7.95;7.15;;;;;;;24.11;55.61;101378.09;5094542;28;20051;-56
2023/05/26 10:22:52;;;;;;;8.82;7.95;;;;;;;24.11;55.73;101377.25;5094587;28;20052;-55
2023/05/26 10:25:34;;;;;;;8.02;7.10;;;;;;;24.11;55.62;101370.00;5094461;28;20498;-54
2023/05/26 10:28:13;;;;;;;8.38;7.50;;;;;;;24.14;55.90;101374.22;5094767;28;20373;-55
2023/05/26 10:30:42;;;;;;;11.20;8.02;;;;;;;24.15;56.15;101370.56;5074279;28;20047;-54
2023/05/26 10:33:11;;;;;;;8.32;6.38;;;;;;;24.17;56.03;101373.94;5075099;28;20051;-55
2023/05/26 10:35:56;;;;;;;9.30;8.27;;;;;;;24.17;56.09;101371.22;5094238;28;20052;-54
2023/05/26 10:38:35;;;;;;;8.82;7.53;;;;;;;24.17;55.55;101361.25;5093940;28;20047;-54
2023/05/26 10:41:03;;;;;;;8.95;7.75;;;;;;;24.15;55.54;101357.88;5094471;28;20048;-55
2023/05/26 10:43:30;;;;;;;11.38;7.88;;;;;;;24.17;55.67;101363.13;5081555;28;20040;-54
2023/05/26 10:46:01;;;;;;;8.20;7.30;;;;;;;24.18;55.71;101360.28;5094228;28;20059;-54
2023/05/26 10:48:56;;;;;;;9.10;8.23;;;;;;;24.19;55.97;101355.72;5093967;28;20514;-54
2023/05/26 10:51:33;;;;;;;8.60;7.70;;;;;;;24.21;55.69;101359.09;5094274;28;20056;-55
2023/05/26 10:54:18;;;;;;;8.55;7.30;;;;;;;24.20;55.82;101345.75;5092688;28;20067;-54
2023/05/26 10:56:50;;;;;;;8.98;7.72;;;;;;;24.21;55.84;101351.00;5093948;28;20048;-55
2023/05/26 10:59:38;;;;;;;11.18;7.50;;;;;;;24.21;55.90;101350.16;5093838;28;20051;-54
2023/05/26 11:02:07;;;;;;;7.88;7.07;;;;;;;24.22;55.61;101341.88;5093957;28;20055;-54
2023/05/26 11:04:43;;;;;;;7.97;7.03;;;;;;;24.23;54.93;101348.16;5093615;28;20055;-54
2023/05/26 11:07:24;;;;;;;7.15;6.47;;;;;;;24.23;54.82;101340.03;5093765;28;20051;-54
2023/05/26 11:10:08;;;;;;;7.50;6.70;;;;;;;24.22;54.68;101339.16;5093298;28;20051;-55
2023/05/26 11:12:46;;;;;;;7.95;6.60;;;;;;;24.23;54.58;101334.63;5093743;28;20040;-57
2023/05/26 11:15:33;;;;;;;8.50;7.13;;;;;;;24.23;54.63;101340.03;5093499;28;20047;-57
2023/05/26 11:18:04;;;;;;;8.25;6.90;;;;;;;24.24;55.01;101336.31;5092790;28;20071;-57
2023/05/26 11:20:32;;;;;;;7.78;6.82;;;;;;;24.24;54.92;101331.75;5093399;28;20055;-56
2023/05/26 11:23:02;;;;;;;7.35;6.57;;;;;;;24.24;54.73;101331.75;5093365;28;20044;-57
2023/05/26 11:25:29;;;;;;;7.45;6.55;;;;;;;24.26;54.75;101331.59;5093322;28;20051;-57
2023/05/26 11:27:57;;;;;;;7.43;6.60;;;;;;;24.26;54.49;101331.59;5093474;28;20036;-57
2023/05/26 11:30:34;;;;;;;10.63;6.10;;;;;;;24.26;54.36;101331.59;5093213;28;20051;-56
2023/05/26 11:33:12;;;;;;;7.70;6.10;;;;;;;24.27;54.77;101325.19;5093395;28;20044;-57
2023/05/26 11:35:39;;;;;;;6.53;5.47;;;;;;;24.28;54.36;101324.19;5093245;28;20067;-57
2023/05/26 11:38:07;;;;;;;9.52;5.82;;;;;;;24.29;54.47;101329.44;5093138;28;20040;-57
2023/05/26 11:40:34;;;;;;;6.30;5.65;;;;;;;24.31;54.27;101318.47;5092990;28;20488;-56